Hlavní strana
METAR-TAF:

METAR-TAF

Letiště :

Tetuán, Maroko

zeměpisná šířka: 35-35N, zeměpisná délka: 005-20W, výška: 10 m

Aktuální stav počasí

Zpráva byla vytvořena před 29 minutami, v 12:00 UTC
Jihozápadní vítr 15 kt, proměnlivý mezi jihojihozápadním a západním
Teplota 25°C
Vlhkost vzduchu 61%
Tlak 1012 hPa
Viditelnost 10 km a více
Oblačno až skoro zataženo ve výšce 4000 ft

METAR: GMTN 041200Z 23015KT 200V260 9999 BKN040 25/17 Q1012 NOSIG

Čas: 13:29 (12:29 UTC)


TAF: chybějící

Stav a předpovědi počasí z více než 4 000 letišť (zprávy METAR a TAF).

Červené a žluté tečky na mapě představují dostupné meteorologické stanice.

Když kurzor umístíte na tečku, zobrazí se název stanice.

Pak kliknutím zobrazíte stav a předpověď počasí.

Chcete-li změnit mapu, kliknutím na zelené tlačítko se znaménkem +mapu přiblížíte, kliknutím na zelené tlačítko se znaménkem – mapu oddálíte a kliknutím na zelené šipky přejdete na sousední mapy.


METAR-TAF: